sensor_id;sensor_type;location;lat;lon;timestamp;P1;durP1;ratioP1;P2;durP2;ratioP2
46889;SDS011;32625;51.080;16.970;2023-05-02T00:01:54;10.70;;;7.22;;
46889;SDS011;32625;51.080;16.970;2023-05-02T00:04:21;11.60;;;7.32;;
46889;SDS011;32625;51.080;16.970;2023-05-02T00:06:52;9.38;;;7.55;;
46889;SDS011;32625;51.080;16.970;2023-05-02T00:09:20;9.88;;;8.20;;
46889;SDS011;32625;51.080;16.970;2023-05-02T00:11:47;13.40;;;8.10;;
46889;SDS011;32625;51.080;16.970;2023-05-02T00:14:14;12.13;;;7.50;;
46889;SDS011;32625;51.080;16.970;2023-05-02T00:16:42;9.05;;;7.85;;
46889;SDS011;32625;51.080;16.970;2023-05-02T00:19:09;12.15;;;8.25;;
46889;SDS011;32625;51.080;16.970;2023-05-02T00:21:36;11.23;;;7.75;;
46889;SDS011;32625;51.080;16.970;2023-05-02T00:24:03;11.13;;;8.02;;
46889;SDS011;32625;51.080;16.970;2023-05-02T00:26:31;9.25;;;7.47;;
46889;SDS011;32625;51.080;16.970;2023-05-02T00:28:58;11.45;;;8.30;;
46889;SDS011;32625;51.080;16.970;2023-05-02T00:31:26;12.40;;;8.35;;
46889;SDS011;32625;51.080;16.970;2023-05-02T00:33:53;12.32;;;8.20;;
46889;SDS011;32625;51.080;16.970;2023-05-02T00:36:21;10.65;;;8.15;;
46889;SDS011;32625;51.080;16.970;2023-05-02T00:38:48;11.75;;;8.35;;
46889;SDS011;32625;51.080;16.970;2023-05-02T00:41:16;12.98;;;8.45;;
46889;SDS011;32625;51.080;16.970;2023-05-02T00:43:43;14.02;;;8.45;;
46889;SDS011;32625;51.080;16.970;2023-05-02T00:46:10;14.70;;;8.90;;
46889;SDS011;32625;51.080;16.970;2023-05-02T00:48:38;10.63;;;8.10;;
46889;SDS011;32625;51.080;16.970;2023-05-02T00:51:06;10.35;;;8.55;;
46889;SDS011;32625;51.080;16.970;2023-05-02T00:53:34;10.52;;;7.85;;
46889;SDS011;32625;51.080;16.970;2023-05-02T00:56:01;12.57;;;8.75;;
46889;SDS011;32625;51.080;16.970;2023-05-02T00:58:29;11.55;;;8.05;;
46889;SDS011;32625;51.080;16.970;2023-05-02T01:03:40;12.18;;;8.40;;
46889;SDS011;32625;51.080;16.970;2023-05-02T01:15:04;14.65;;;7.97;;
46889;SDS011;32625;51.080;16.970;2023-05-02T01:17:36;10.88;;;7.60;;
46889;SDS011;32625;51.080;16.970;2023-05-02T01:20:05;12.00;;;8.40;;
46889;SDS011;32625;51.080;16.970;2023-05-02T01:22:35;10.27;;;8.02;;
46889;SDS011;32625;51.080;16.970;2023-05-02T01:27:46;10.73;;;8.15;;
46889;SDS011;32625;51.080;16.970;2023-05-02T01:30:17;10.10;;;7.70;;
46889;SDS011;32625;51.080;16.970;2023-05-02T01:32:47;11.20;;;8.25;;
46889;SDS011;32625;51.080;16.970;2023-05-02T01:35:17;11.25;;;7.88;;
46889;SDS011;32625;51.080;16.970;2023-05-02T01:37:47;11.48;;;8.52;;
46889;SDS011;32625;51.080;16.970;2023-05-02T01:40:16;9.30;;;7.18;;
46889;SDS011;32625;51.080;16.970;2023-05-02T01:42:46;13.48;;;8.20;;
46889;SDS011;32625;51.080;16.970;2023-05-02T01:45:15;9.65;;;8.00;;
46889;SDS011;32625;51.080;16.970;2023-05-02T01:47:44;11.75;;;8.70;;
46889;SDS011;32625;51.080;16.970;2023-05-02T01:50:13;9.93;;;8.45;;
46889;SDS011;32625;51.080;16.970;2023-05-02T01:52:46;10.23;;;7.63;;
46889;SDS011;32625;51.080;16.970;2023-05-02T01:55:16;10.95;;;7.57;;
46889;SDS011;32625;51.080;16.970;2023-05-02T01:57:45;10.15;;;7.93;;
46889;SDS011;32625;51.080;16.970;2023-05-02T02:00:15;10.90;;;7.93;;
46889;SDS011;32625;51.080;16.970;2023-05-02T02:02:44;8.68;;;7.63;;
46889;SDS011;32625;51.080;16.970;2023-05-02T02:05:13;10.60;;;7.75;;
46889;SDS011;32625;51.080;16.970;2023-05-02T02:07:43;11.02;;;8.15;;
46889;SDS011;32625;51.080;16.970;2023-05-02T02:10:10;11.02;;;7.30;;
46889;SDS011;32625;51.080;16.970;2023-05-02T02:12:44;8.60;;;7.68;;
46889;SDS011;32625;51.080;16.970;2023-05-02T02:15:20;11.13;;;7.85;;
46889;SDS011;32625;51.080;16.970;2023-05-02T02:20:25;10.40;;;7.70;;
46889;SDS011;32625;51.080;16.970;2023-05-02T02:22:55;13.32;;;7.38;;
46889;SDS011;32625;51.080;16.970;2023-05-02T02:25:24;11.95;;;8.40;;
46889;SDS011;32625;51.080;16.970;2023-05-02T02:27:52;9.85;;;8.07;;
46889;SDS011;32625;51.080;16.970;2023-05-02T02:30:19;9.43;;;8.07;;
46889;SDS011;32625;51.080;16.970;2023-05-02T02:32:47;10.93;;;7.95;;
46889;SDS011;32625;51.080;16.970;2023-05-02T02:35:14;8.95;;;7.00;;
46889;SDS011;32625;51.080;16.970;2023-05-02T02:43:09;11.13;;;9.07;;
46889;SDS011;32625;51.080;16.970;2023-05-02T02:48:37;11.63;;;8.80;;
46889;SDS011;32625;51.080;16.970;2023-05-02T02:54:05;13.60;;;9.70;;
46889;SDS011;32625;51.080;16.970;2023-05-02T02:56:56;12.43;;;10.25;;
46889;SDS011;32625;51.080;16.970;2023-05-02T02:59:39;14.32;;;8.75;;
46889;SDS011;32625;51.080;16.970;2023-05-02T03:02:13;11.43;;;8.27;;
46889;SDS011;32625;51.080;16.970;2023-05-02T03:04:44;11.63;;;7.85;;
46889;SDS011;32625;51.080;16.970;2023-05-02T03:07:13;12.07;;;6.78;;
46889;SDS011;32625;51.080;16.970;2023-05-02T03:09:45;10.85;;;6.82;;
46889;SDS011;32625;51.080;16.970;2023-05-02T03:12:20;12.57;;;6.80;;
46889;SDS011;32625;51.080;16.970;2023-05-02T03:14:48;7.20;;;5.72;;
46889;SDS011;32625;51.080;16.970;2023-05-02T03:17:16;9.05;;;6.82;;
46889;SDS011;32625;51.080;16.970;2023-05-02T03:19:44;10.60;;;6.63;;
46889;SDS011;32625;51.080;16.970;2023-05-02T03:22:11;8.30;;;6.07;;
46889;SDS011;32625;51.080;16.970;2023-05-02T03:24:38;10.35;;;7.25;;
46889;SDS011;32625;51.080;16.970;2023-05-02T03:27:07;8.88;;;7.00;;
46889;SDS011;32625;51.080;16.970;2023-05-02T03:29:39;11.15;;;7.00;;
46889;SDS011;32625;51.080;16.970;2023-05-02T03:32:09;12.02;;;7.38;;
46889;SDS011;32625;51.080;16.970;2023-05-02T03:34:38;10.25;;;7.32;;
46889;SDS011;32625;51.080;16.970;2023-05-02T03:37:08;12.23;;;7.50;;
46889;SDS011;32625;51.080;16.970;2023-05-02T03:39:35;8.70;;;6.38;;
46889;SDS011;32625;51.080;16.970;2023-05-02T03:42:02;11.05;;;5.70;;
46889;SDS011;32625;51.080;16.970;2023-05-02T03:44:31;7.13;;;5.63;;
46889;SDS011;32625;51.080;16.970;2023-05-02T03:46:58;7.05;;;5.80;;
46889;SDS011;32625;51.080;16.970;2023-05-02T03:49:26;8.13;;;5.45;;
46889;SDS011;32625;51.080;16.970;2023-05-02T03:51:53;6.97;;;5.68;;
46889;SDS011;32625;51.080;16.970;2023-05-02T03:54:26;7.47;;;5.53;;
46889;SDS011;32625;51.080;16.970;2023-05-02T03:56:53;9.02;;;5.35;;
46889;SDS011;32625;51.080;16.970;2023-05-02T03:59:30;7.78;;;5.97;;
46889;SDS011;32625;51.080;16.970;2023-05-02T04:02:00;10.93;;;6.22;;
46889;SDS011;32625;51.080;16.970;2023-05-02T04:04:36;10.35;;;5.57;;
46889;SDS011;32625;51.080;16.970;2023-05-02T04:07:05;9.75;;;5.78;;
46889;SDS011;32625;51.080;16.970;2023-05-02T04:09:33;11.02;;;6.22;;
46889;SDS011;32625;51.080;16.970;2023-05-02T04:12:06;8.93;;;5.93;;
46889;SDS011;32625;51.080;16.970;2023-05-02T04:14:35;7.45;;;5.20;;
46889;SDS011;32625;51.080;16.970;2023-05-02T04:17:03;7.70;;;5.55;;
46889;SDS011;32625;51.080;16.970;2023-05-02T04:19:43;6.95;;;5.28;;
46889;SDS011;32625;51.080;16.970;2023-05-02T04:22:11;8.15;;;5.30;;
46889;SDS011;32625;51.080;16.970;2023-05-02T04:24:43;7.28;;;5.70;;
46889;SDS011;32625;51.080;16.970;2023-05-02T04:27:11;8.13;;;5.88;;
46889;SDS011;32625;51.080;16.970;2023-05-02T04:29:41;11.27;;;6.20;;
46889;SDS011;32625;51.080;16.970;2023-05-02T04:32:09;9.10;;;5.80;;
46889;SDS011;32625;51.080;16.970;2023-05-02T04:34:38;7.53;;;5.85;;
46889;SDS011;32625;51.080;16.970;2023-05-02T04:37:05;10.13;;;5.93;;
46889;SDS011;32625;51.080;16.970;2023-05-02T04:39:33;10.90;;;6.30;;
46889;SDS011;32625;51.080;16.970;2023-05-02T04:42:04;9.15;;;6.63;;
46889;SDS011;32625;51.080;16.970;2023-05-02T04:44:38;12.30;;;6.77;;
46889;SDS011;32625;51.080;16.970;2023-05-02T04:47:05;9.38;;;6.80;;
46889;SDS011;32625;51.080;16.970;2023-05-02T04:49:32;9.52;;;6.43;;
46889;SDS011;32625;51.080;16.970;2023-05-02T04:51:59;9.15;;;6.68;;
46889;SDS011;32625;51.080;16.970;2023-05-02T04:54:26;11.77;;;7.38;;
46889;SDS011;32625;51.080;16.970;2023-05-02T04:56:54;10.90;;;7.50;;
46889;SDS011;32625;51.080;16.970;2023-05-02T04:59:23;10.73;;;7.55;;
46889;SDS011;32625;51.080;16.970;2023-05-02T05:01:50;12.02;;;7.45;;
46889;SDS011;32625;51.080;16.970;2023-05-02T05:04:17;11.75;;;8.25;;
46889;SDS011;32625;51.080;16.970;2023-05-02T05:06:45;9.00;;;7.53;;
46889;SDS011;32625;51.080;16.970;2023-05-02T05:09:14;9.93;;;7.95;;
46889;SDS011;32625;51.080;16.970;2023-05-02T05:11:42;10.48;;;7.95;;
46889;SDS011;32625;51.080;16.970;2023-05-02T05:14:13;11.70;;;8.13;;
46889;SDS011;32625;51.080;16.970;2023-05-02T05:16:44;9.15;;;7.40;;
46889;SDS011;32625;51.080;16.970;2023-05-02T05:19:11;10.65;;;8.30;;
46889;SDS011;32625;51.080;16.970;2023-05-02T05:21:38;9.85;;;7.82;;
46889;SDS011;32625;51.080;16.970;2023-05-02T05:24:07;12.65;;;7.95;;
46889;SDS011;32625;51.080;16.970;2023-05-02T05:26:34;11.77;;;9.10;;
46889;SDS011;32625;51.080;16.970;2023-05-02T05:29:02;11.40;;;8.70;;
46889;SDS011;32625;51.080;16.970;2023-05-02T05:31:36;11.55;;;8.98;;
46889;SDS011;32625;51.080;16.970;2023-05-02T05:34:04;13.98;;;9.77;;
46889;SDS011;32625;51.080;16.970;2023-05-02T05:36:32;12.38;;;9.38;;
46889;SDS011;32625;51.080;16.970;2023-05-02T05:39:01;11.70;;;8.63;;
46889;SDS011;32625;51.080;16.970;2023-05-02T05:41:30;11.15;;;8.52;;
46889;SDS011;32625;51.080;16.970;2023-05-02T05:44:02;10.52;;;9.05;;
46889;SDS011;32625;51.080;16.970;2023-05-02T05:46:30;12.35;;;9.77;;
46889;SDS011;32625;51.080;16.970;2023-05-02T05:48:58;11.50;;;9.15;;
46889;SDS011;32625;51.080;16.970;2023-05-02T05:51:28;13.35;;;9.52;;
46889;SDS011;32625;51.080;16.970;2023-05-02T05:53:57;27.92;;;20.75;;
46889;SDS011;32625;51.080;16.970;2023-05-02T05:56:25;24.15;;;18.70;;
46889;SDS011;32625;51.080;16.970;2023-05-02T05:59:06;17.70;;;12.90;;
46889;SDS011;32625;51.080;16.970;2023-05-02T06:01:33;22.05;;;15.85;;
46889;SDS011;32625;51.080;16.970;2023-05-02T06:04:03;22.70;;;17.00;;
46889;SDS011;32625;51.080;16.970;2023-05-02T06:06:33;18.73;;;13.25;;
46889;SDS011;32625;51.080;16.970;2023-05-02T06:09:01;12.32;;;8.07;;
46889;SDS011;32625;51.080;16.970;2023-05-02T06:11:31;18.88;;;10.52;;
46889;SDS011;32625;51.080;16.970;2023-05-02T06:13:58;12.52;;;9.80;;
46889;SDS011;32625;51.080;16.970;2023-05-02T06:16:25;10.50;;;9.15;;
46889;SDS011;32625;51.080;16.970;2023-05-02T06:18:52;17.67;;;12.85;;
46889;SDS011;32625;51.080;16.970;2023-05-02T06:21:20;14.80;;;9.45;;
46889;SDS011;32625;51.080;16.970;2023-05-02T06:23:47;68.43;;;48.17;;
46889;SDS011;32625;51.080;16.970;2023-05-02T06:26:14;173.23;;;130.00;;
46889;SDS011;32625;51.080;16.970;2023-05-02T06:28:41;141.52;;;103.53;;
46889;SDS011;32625;51.080;16.970;2023-05-02T06:31:09;128.40;;;75.70;;
46889;SDS011;32625;51.080;16.970;2023-05-02T06:33:37;144.45;;;94.20;;
46889;SDS011;32625;51.080;16.970;2023-05-02T06:36:04;279.25;;;165.15;;
46889;SDS011;32625;51.080;16.970;2023-05-02T06:38:31;180.40;;;109.28;;
46889;SDS011;32625;51.080;16.970;2023-05-02T06:40:58;93.05;;;55.22;;
46889;SDS011;32625;51.080;16.970;2023-05-02T06:43:25;41.17;;;28.15;;
46889;SDS011;32625;51.080;16.970;2023-05-02T06:45:53;142.35;;;83.30;;
46889;SDS011;32625;51.080;16.970;2023-05-02T06:48:24;222.45;;;128.52;;
46889;SDS011;32625;51.080;16.970;2023-05-02T06:50:51;263.15;;;156.38;;
46889;SDS011;32625;51.080;16.970;2023-05-02T06:53:21;216.07;;;128.40;;
46889;SDS011;32625;51.080;16.970;2023-05-02T06:55:49;112.82;;;70.45;;
46889;SDS011;32625;51.080;16.970;2023-05-02T06:58:16;44.72;;;27.63;;
46889;SDS011;32625;51.080;16.970;2023-05-02T07:00:43;28.88;;;18.75;;
46889;SDS011;32625;51.080;16.970;2023-05-02T07:03:11;28.02;;;17.25;;
46889;SDS011;32625;51.080;16.970;2023-05-02T07:05:38;23.02;;;14.10;;
46889;SDS011;32625;51.080;16.970;2023-05-02T07:08:05;31.45;;;18.52;;
46889;SDS011;32625;51.080;16.970;2023-05-02T07:10:32;18.63;;;11.25;;
46889;SDS011;32625;51.080;16.970;2023-05-02T07:12:59;15.90;;;10.93;;
46889;SDS011;32625;51.080;16.970;2023-05-02T07:15:27;14.52;;;10.18;;
46889;SDS011;32625;51.080;16.970;2023-05-02T07:17:54;65.15;;;34.83;;
46889;SDS011;32625;51.080;16.970;2023-05-02T07:20:21;18.60;;;11.98;;
46889;SDS011;32625;51.080;16.970;2023-05-02T07:22:48;11.18;;;9.07;;
46889;SDS011;32625;51.080;16.970;2023-05-02T07:25:15;11.70;;;8.77;;
46889;SDS011;32625;51.080;16.970;2023-05-02T07:27:43;57.33;;;21.92;;
46889;SDS011;32625;51.080;16.970;2023-05-02T07:30:10;29.88;;;15.93;;
46889;SDS011;32625;51.080;16.970;2023-05-02T07:32:38;14.25;;;9.27;;
46889;SDS011;32625;51.080;16.970;2023-05-02T07:35:05;11.65;;;8.77;;
46889;SDS011;32625;51.080;16.970;2023-05-02T07:37:33;9.75;;;8.48;;
46889;SDS011;32625;51.080;16.970;2023-05-02T07:40:00;10.82;;;8.10;;
46889;SDS011;32625;51.080;16.970;2023-05-02T07:42:29;11.65;;;8.30;;
46889;SDS011;32625;51.080;16.970;2023-05-02T07:44:57;10.48;;;7.43;;
46889;SDS011;32625;51.080;16.970;2023-05-02T07:47:25;13.02;;;9.60;;
46889;SDS011;32625;51.080;16.970;2023-05-02T07:49:53;15.10;;;9.15;;
46889;SDS011;32625;51.080;16.970;2023-05-02T07:52:21;10.68;;;7.50;;
46889;SDS011;32625;51.080;16.970;2023-05-02T07:54:48;9.00;;;7.43;;
46889;SDS011;32625;51.080;16.970;2023-05-02T07:57:16;19.08;;;12.50;;
46889;SDS011;32625;51.080;16.970;2023-05-02T07:59:43;15.02;;;8.23;;
46889;SDS011;32625;51.080;16.970;2023-05-02T08:02:11;12.07;;;8.95;;
46889;SDS011;32625;51.080;16.970;2023-05-02T08:04:39;10.35;;;7.97;;
46889;SDS011;32625;51.080;16.970;2023-05-02T08:07:06;25.30;;;13.43;;
46889;SDS011;32625;51.080;16.970;2023-05-02T08:09:34;15.43;;;11.07;;
46889;SDS011;32625;51.080;16.970;2023-05-02T08:12:01;15.30;;;8.15;;
46889;SDS011;32625;51.080;16.970;2023-05-02T08:14:28;8.50;;;7.53;;
46889;SDS011;32625;51.080;16.970;2023-05-02T08:16:56;11.35;;;8.27;;
46889;SDS011;32625;51.080;16.970;2023-05-02T08:19:24;10.70;;;7.72;;
46889;SDS011;32625;51.080;16.970;2023-05-02T08:21:54;10.30;;;7.68;;
46889;SDS011;32625;51.080;16.970;2023-05-02T08:24:22;10.73;;;8.18;;
46889;SDS011;32625;51.080;16.970;2023-05-02T08:26:49;11.85;;;7.07;;
46889;SDS011;32625;51.080;16.970;2023-05-02T08:29:16;11.30;;;7.60;;
46889;SDS011;32625;51.080;16.970;2023-05-02T08:31:43;9.93;;;7.90;;
46889;SDS011;32625;51.080;16.970;2023-05-02T08:34:10;11.45;;;7.57;;
46889;SDS011;32625;51.080;16.970;2023-05-02T08:36:37;11.40;;;8.05;;
46889;SDS011;32625;51.080;16.970;2023-05-02T08:39:04;12.95;;;8.18;;
46889;SDS011;32625;51.080;16.970;2023-05-02T08:41:33;10.77;;;7.70;;
46889;SDS011;32625;51.080;16.970;2023-05-02T08:44:01;10.45;;;7.10;;
46889;SDS011;32625;51.080;16.970;2023-05-02T08:46:29;11.18;;;7.32;;
46889;SDS011;32625;51.080;16.970;2023-05-02T08:48:57;9.38;;;7.57;;
46889;SDS011;32625;51.080;16.970;2023-05-02T08:51:26;11.13;;;8.13;;
46889;SDS011;32625;51.080;16.970;2023-05-02T08:53:55;11.70;;;7.18;;
46889;SDS011;32625;51.080;16.970;2023-05-02T08:56:23;12.55;;;8.57;;
46889;SDS011;32625;51.080;16.970;2023-05-02T08:58:51;11.13;;;8.38;;
46889;SDS011;32625;51.080;16.970;2023-05-02T09:01:19;11.63;;;7.90;;
46889;SDS011;32625;51.080;16.970;2023-05-02T09:03:49;10.27;;;7.97;;
46889;SDS011;32625;51.080;16.970;2023-05-02T09:06:18;10.80;;;7.47;;
46889;SDS011;32625;51.080;16.970;2023-05-02T09:08:48;11.95;;;8.55;;
46889;SDS011;32625;51.080;16.970;2023-05-02T09:11:18;10.77;;;8.32;;
46889;SDS011;32625;51.080;16.970;2023-05-02T09:13:50;13.68;;;8.00;;
46889;SDS011;32625;51.080;16.970;2023-05-02T09:16:19;12.35;;;7.93;;
46889;SDS011;32625;51.080;16.970;2023-05-02T09:18:49;11.18;;;7.32;;
46889;SDS011;32625;51.080;16.970;2023-05-02T09:21:18;11.55;;;7.72;;
46889;SDS011;32625;51.080;16.970;2023-05-02T09:23:51;10.32;;;8.77;;
46889;SDS011;32625;51.080;16.970;2023-05-02T09:26:20;11.55;;;8.57;;
46889;SDS011;32625;51.080;16.970;2023-05-02T09:28:49;11.57;;;8.32;;
46889;SDS011;32625;51.080;16.970;2023-05-02T09:31:18;14.27;;;8.50;;
46889;SDS011;32625;51.080;16.970;2023-05-02T09:34:12;11.18;;;8.32;;
46889;SDS011;32625;51.080;16.970;2023-05-02T09:36:47;13.00;;;7.80;;
46889;SDS011;32625;51.080;16.970;2023-05-02T09:39:23;10.68;;;7.93;;
46889;SDS011;32625;51.080;16.970;2023-05-02T09:41:55;12.23;;;8.00;;
46889;SDS011;32625;51.080;16.970;2023-05-02T09:44:24;13.32;;;7.32;;
46889;SDS011;32625;51.080;16.970;2023-05-02T09:46:53;11.23;;;8.32;;
46889;SDS011;32625;51.080;16.970;2023-05-02T09:52:10;11.77;;;7.60;;
46889;SDS011;32625;51.080;16.970;2023-05-02T09:54:38;10.23;;;7.85;;
46889;SDS011;32625;51.080;16.970;2023-05-02T09:57:05;10.23;;;7.65;;
46889;SDS011;32625;51.080;16.970;2023-05-02T09:59:33;12.20;;;8.13;;
46889;SDS011;32625;51.080;16.970;2023-05-02T10:02:00;10.23;;;7.53;;
46889;SDS011;32625;51.080;16.970;2023-05-02T10:04:30;9.95;;;7.38;;
46889;SDS011;32625;51.080;16.970;2023-05-02T10:06:58;16.02;;;11.18;;
46889;SDS011;32625;51.080;16.970;2023-05-02T10:09:27;9.95;;;8.95;;
46889;SDS011;32625;51.080;16.970;2023-05-02T10:11:59;10.45;;;7.60;;
46889;SDS011;32625;51.080;16.970;2023-05-02T10:14:45;13.40;;;8.75;;
46889;SDS011;32625;51.080;16.970;2023-05-02T10:17:26;16.38;;;8.98;;
46889;SDS011;32625;51.080;16.970;2023-05-02T10:19:58;9.18;;;7.45;;
46889;SDS011;32625;51.080;16.970;2023-05-02T10:22:29;14.65;;;7.30;;
46889;SDS011;32625;51.080;16.970;2023-05-02T10:24:58;12.40;;;9.75;;
46889;SDS011;32625;51.080;16.970;2023-05-02T10:27:29;9.70;;;7.25;;
46889;SDS011;32625;51.080;16.970;2023-05-02T10:29:57;9.50;;;6.82;;
46889;SDS011;32625;51.080;16.970;2023-05-02T10:32:29;11.25;;;6.97;;
46889;SDS011;32625;51.080;16.970;2023-05-02T10:35:03;10.83;;;7.70;;
46889;SDS011;32625;51.080;16.970;2023-05-02T10:37:32;12.40;;;7.97;;
46889;SDS011;32625;51.080;16.970;2023-05-02T10:40:02;10.50;;;7.35;;
46889;SDS011;32625;51.080;16.970;2023-05-02T10:42:33;11.43;;;7.43;;
46889;SDS011;32625;51.080;16.970;2023-05-02T10:45:04;11.55;;;7.22;;
46889;SDS011;32625;51.080;16.970;2023-05-02T10:50:45;13.07;;;9.60;;
46889;SDS011;32625;51.080;16.970;2023-05-02T10:56:37;11.82;;;7.25;;
46889;SDS011;32625;51.080;16.970;2023-05-02T10:58:41;10.77;;;7.57;;
46889;SDS011;32625;51.080;16.970;2023-05-02T11:04:00;9.93;;;6.80;;
46889;SDS011;32625;51.080;16.970;2023-05-02T11:06:29;10.60;;;6.72;;
46889;SDS011;32625;51.080;16.970;2023-05-02T11:09:29;8.82;;;6.28;;
46889;SDS011;32625;51.080;16.970;2023-05-02T11:11:50;9.02;;;6.85;;
46889;SDS011;32625;51.080;16.970;2023-05-02T11:20:17;9.38;;;6.82;;
46889;SDS011;32625;51.080;16.970;2023-05-02T11:24:52;11.27;;;6.35;;
46889;SDS011;32625;51.080;16.970;2023-05-02T11:29:59;12.82;;;8.15;;
46889;SDS011;32625;51.080;16.970;2023-05-02T11:35:19;9.40;;;6.20;;
46889;SDS011;32625;51.080;16.970;2023-05-02T11:38:08;8.23;;;5.68;;
46889;SDS011;32625;51.080;16.970;2023-05-02T11:40:38;8.75;;;6.30;;
46889;SDS011;32625;51.080;16.970;2023-05-02T11:43:12;8.05;;;5.75;;
46889;SDS011;32625;51.080;16.970;2023-05-02T11:45:41;8.80;;;6.18;;
46889;SDS011;32625;51.080;16.970;2023-05-02T11:48:08;10.18;;;6.13;;
46889;SDS011;32625;51.080;16.970;2023-05-02T11:50:51;12.02;;;5.88;;
46889;SDS011;32625;51.080;16.970;2023-05-02T11:53:23;11.60;;;5.78;;
46889;SDS011;32625;51.080;16.970;2023-05-02T11:55:52;11.23;;;5.75;;
46889;SDS011;32625;51.080;16.970;2023-05-02T11:58:24;8.25;;;6.55;;
46889;SDS011;32625;51.080;16.970;2023-05-02T12:00:58;8.85;;;6.38;;
46889;SDS011;32625;51.080;16.970;2023-05-02T12:03:46;7.95;;;6.10;;
46889;SDS011;32625;51.080;16.970;2023-05-02T12:06:15;11.50;;;7.75;;
46889;SDS011;32625;51.080;16.970;2023-05-02T12:08:46;9.07;;;5.70;;
46889;SDS011;32625;51.080;16.970;2023-05-02T12:11:15;20.35;;;14.18;;
46889;SDS011;32625;51.080;16.970;2023-05-02T12:13:46;13.73;;;6.82;;
46889;SDS011;32625;51.080;16.970;2023-05-02T12:16:16;7.25;;;5.60;;
46889;SDS011;32625;51.080;16.970;2023-05-02T12:18:45;8.68;;;5.95;;
46889;SDS011;32625;51.080;16.970;2023-05-02T12:21:13;12.95;;;6.13;;
46889;SDS011;32625;51.080;16.970;2023-05-02T12:23:40;9.35;;;6.72;;
46889;SDS011;32625;51.080;16.970;2023-05-02T12:28:54;9.45;;;5.15;;
46889;SDS011;32625;51.080;16.970;2023-05-02T12:31:23;8.43;;;4.82;;
46889;SDS011;32625;51.080;16.970;2023-05-02T12:33:52;10.18;;;5.20;;
46889;SDS011;32625;51.080;16.970;2023-05-02T12:36:23;6.85;;;4.85;;
46889;SDS011;32625;51.080;16.970;2023-05-02T12:38:51;8.98;;;5.32;;
46889;SDS011;32625;51.080;16.970;2023-05-02T12:41:30;9.75;;;5.25;;
46889;SDS011;32625;51.080;16.970;2023-05-02T12:44:02;7.90;;;4.82;;
46889;SDS011;32625;51.080;16.970;2023-05-02T12:46:31;8.52;;;4.38;;
46889;SDS011;32625;51.080;16.970;2023-05-02T12:49:02;12.02;;;3.47;;
46889;SDS011;32625;51.080;16.970;2023-05-02T12:51:35;5.55;;;3.80;;
46889;SDS011;32625;51.080;16.970;2023-05-02T12:54:02;8.88;;;4.10;;
46889;SDS011;32625;51.080;16.970;2023-05-02T12:56:37;5.55;;;3.70;;
46889;SDS011;32625;51.080;16.970;2023-05-02T12:59:05;5.97;;;3.55;;
46889;SDS011;32625;51.080;16.970;2023-05-02T13:01:33;8.70;;;3.50;;
46889;SDS011;32625;51.080;16.970;2023-05-02T13:04:01;6.57;;;3.60;;
46889;SDS011;32625;51.080;16.970;2023-05-02T13:06:28;5.18;;;3.63;;
46889;SDS011;32625;51.080;16.970;2023-05-02T13:08:57;7.32;;;4.10;;
46889;SDS011;32625;51.080;16.970;2023-05-02T13:11:24;3.90;;;3.50;;
46889;SDS011;32625;51.080;16.970;2023-05-02T13:13:51;5.07;;;3.33;;
46889;SDS011;32625;51.080;16.970;2023-05-02T13:16:19;3.70;;;3.25;;
46889;SDS011;32625;51.080;16.970;2023-05-02T13:18:47;3.78;;;3.08;;
46889;SDS011;32625;51.080;16.970;2023-05-02T13:21:14;4.10;;;2.90;;
46889;SDS011;32625;51.080;16.970;2023-05-02T13:23:41;2.78;;;2.35;;
46889;SDS011;32625;51.080;16.970;2023-05-02T13:26:12;2.78;;;2.58;;
46889;SDS011;32625;51.080;16.970;2023-05-02T13:28:40;4.82;;;2.53;;
46889;SDS011;32625;51.080;16.970;2023-05-02T13:31:07;4.47;;;2.90;;
46889;SDS011;32625;51.080;16.970;2023-05-02T13:33:34;3.92;;;2.60;;
46889;SDS011;32625;51.080;16.970;2023-05-02T13:36:01;4.88;;;3.08;;
46889;SDS011;32625;51.080;16.970;2023-05-02T13:38:28;3.97;;;3.05;;
46889;SDS011;32625;51.080;16.970;2023-05-02T13:40:56;5.35;;;3.20;;
46889;SDS011;32625;51.080;16.970;2023-05-02T13:43:23;8.13;;;3.42;;
46889;SDS011;32625;51.080;16.970;2023-05-02T13:45:50;14.45;;;3.17;;
46889;SDS011;32625;51.080;16.970;2023-05-02T13:48:17;5.15;;;3.90;;
46889;SDS011;32625;51.080;16.970;2023-05-02T13:50:45;7.20;;;4.40;;
46889;SDS011;32625;51.080;16.970;2023-05-02T13:53:12;4.45;;;4.05;;
46889;SDS011;32625;51.080;16.970;2023-05-02T13:55:39;5.32;;;4.43;;
46889;SDS011;32625;51.080;16.970;2023-05-02T13:58:06;31.33;;;28.15;;
46889;SDS011;32625;51.080;16.970;2023-05-02T14:00:33;11.85;;;10.65;;
46889;SDS011;32625;51.080;16.970;2023-05-02T14:03:01;20.08;;;16.17;;
46889;SDS011;32625;51.080;16.970;2023-05-02T14:05:28;8.20;;;5.05;;
46889;SDS011;32625;51.080;16.970;2023-05-02T14:07:55;5.82;;;4.20;;
46889;SDS011;32625;51.080;16.970;2023-05-02T14:10:22;4.93;;;3.90;;
46889;SDS011;32625;51.080;16.970;2023-05-02T14:12:49;8.45;;;4.40;;
46889;SDS011;32625;51.080;16.970;2023-05-02T14:15:18;8.27;;;4.25;;
46889;SDS011;32625;51.080;16.970;2023-05-02T14:17:47;5.88;;;4.00;;
46889;SDS011;32625;51.080;16.970;2023-05-02T14:20:15;6.85;;;4.45;;
46889;SDS011;32625;51.080;16.970;2023-05-02T14:22:43;5.00;;;4.00;;
46889;SDS011;32625;51.080;16.970;2023-05-02T14:25:10;11.90;;;9.50;;
46889;SDS011;32625;51.080;16.970;2023-05-02T14:27:38;7.20;;;4.40;;
46889;SDS011;32625;51.080;16.970;2023-05-02T14:30:06;10.50;;;4.18;;
46889;SDS011;32625;51.080;16.970;2023-05-02T14:32:35;36.85;;;31.23;;
46889;SDS011;32625;51.080;16.970;2023-05-02T14:35:03;7.72;;;5.65;;
46889;SDS011;32625;51.080;16.970;2023-05-02T14:37:33;8.35;;;6.63;;
46889;SDS011;32625;51.080;16.970;2023-05-02T14:40:00;7.55;;;4.43;;
46889;SDS011;32625;51.080;16.970;2023-05-02T14:42:28;6.93;;;5.32;;
46889;SDS011;32625;51.080;16.970;2023-05-02T14:44:56;6.93;;;4.60;;
46889;SDS011;32625;51.080;16.970;2023-05-02T14:47:26;6.47;;;4.57;;
46889;SDS011;32625;51.080;16.970;2023-05-02T14:49:56;7.80;;;5.18;;
46889;SDS011;32625;51.080;16.970;2023-05-02T14:52:23;5.18;;;4.30;;
46889;SDS011;32625;51.080;16.970;2023-05-02T14:54:50;9.10;;;4.47;;
46889;SDS011;32625;51.080;16.970;2023-05-02T14:57:18;4.93;;;4.13;;
46889;SDS011;32625;51.080;16.970;2023-05-02T14:59:45;9.68;;;4.97;;
46889;SDS011;32625;51.080;16.970;2023-05-02T15:02:12;6.65;;;4.50;;
46889;SDS011;32625;51.080;16.970;2023-05-02T15:04:40;5.53;;;4.28;;
46889;SDS011;32625;51.080;16.970;2023-05-02T15:07:07;6.70;;;4.55;;
46889;SDS011;32625;51.080;16.970;2023-05-02T15:09:34;5.70;;;4.05;;
46889;SDS011;32625;51.080;16.970;2023-05-02T15:12:01;7.03;;;4.18;;
46889;SDS011;32625;51.080;16.970;2023-05-02T15:14:29;9.32;;;5.00;;
46889;SDS011;32625;51.080;16.970;2023-05-02T15:16:56;8.80;;;4.45;;
46889;SDS011;32625;51.080;16.970;2023-05-02T15:19:23;7.50;;;4.85;;
46889;SDS011;32625;51.080;16.970;2023-05-02T15:21:50;9.25;;;4.55;;
46889;SDS011;32625;51.080;16.970;2023-05-02T15:24:18;6.38;;;4.40;;
46889;SDS011;32625;51.080;16.970;2023-05-02T15:26:45;11.40;;;4.47;;
46889;SDS011;32625;51.080;16.970;2023-05-02T15:29:13;5.90;;;4.03;;
46889;SDS011;32625;51.080;16.970;2023-05-02T15:31:40;10.57;;;4.32;;